sensor_id;sensor_type;location;lat;lon;timestamp;temperature;humidity
65692;DHT22;52411;52.716;6.696;2022-07-04T00:02:03;13.60;99.90
65692;DHT22;52411;52.716;6.696;2022-07-04T00:08:09;13.60;99.90
65692;DHT22;52411;52.716;6.696;2022-07-04T00:18:21;13.40;99.90
65692;DHT22;52411;52.716;6.696;2022-07-04T00:20:47;13.30;99.90
65692;DHT22;52411;52.716;6.696;2022-07-04T00:30:58;13.20;99.90
65692;DHT22;52411;52.716;6.696;2022-07-04T00:35:59;13.10;99.90
65692;DHT22;52411;52.716;6.696;2022-07-04T00:38:25;13.00;99.90
65692;DHT22;52411;52.716;6.696;2022-07-04T00:46:24;13.00;99.90
65692;DHT22;52411;52.716;6.696;2022-07-04T00:48:50;13.00;99.90
65692;DHT22;52411;52.716;6.696;2022-07-04T00:51:15;12.90;99.90
65692;DHT22;52411;52.716;6.696;2022-07-04T00:58:53;12.90;99.90
65692;DHT22;52411;52.716;6.696;2022-07-04T01:03:55;12.80;99.90
65692;DHT22;52411;52.716;6.696;2022-07-04T01:08:56;12.70;99.90
65692;DHT22;52411;52.716;6.696;2022-07-04T01:11:22;12.70;99.90
65692;DHT22;52411;52.716;6.696;2022-07-04T01:20:09;12.60;99.90
65692;DHT22;52411;52.716;6.696;2022-07-04T01:22:35;12.70;99.90
65692;DHT22;52411;52.716;6.696;2022-07-04T01:28:02;12.70;99.90
65692;DHT22;52411;52.716;6.696;2022-07-04T02:06:44;12.50;99.90
65692;DHT22;52411;52.716;6.696;2022-07-04T02:09:09;12.50;99.90
65692;DHT22;52411;52.716;6.696;2022-07-04T02:22:37;12.00;99.90
65692;DHT22;52411;52.716;6.696;2022-07-04T02:25:03;12.10;99.90
65692;DHT22;52411;52.716;6.696;2022-07-04T02:27:29;12.00;99.90
65692;DHT22;52411;52.716;6.696;2022-07-04T02:37:41;11.80;99.90
65692;DHT22;52411;52.716;6.696;2022-07-04T02:40:08;11.60;99.90
65692;DHT22;52411;52.716;6.696;2022-07-04T02:42:34;11.50;99.90
65692;DHT22;52411;52.716;6.696;2022-07-04T02:52:47;11.30;99.90
65692;DHT22;52411;52.716;6.696;2022-07-04T03:02:59;11.40;99.90
65692;DHT22;52411;52.716;6.696;2022-07-04T03:05:24;11.40;99.90
65692;DHT22;52411;52.716;6.696;2022-07-04T03:07:50;11.40;99.90
65692;DHT22;52411;52.716;6.696;2022-07-04T03:20:37;11.40;99.90
65692;DHT22;52411;52.716;6.696;2022-07-04T03:23:03;11.50;99.90
65692;DHT22;52411;52.716;6.696;2022-07-04T03:33:15;11.40;99.90
65692;DHT22;52411;52.716;6.696;2022-07-04T04:01:34;11.40;99.90
65692;DHT22;52411;52.716;6.696;2022-07-04T04:04:00;11.50;99.90
65692;DHT22;52411;52.716;6.696;2022-07-04T04:06:44;11.50;99.90
65692;DHT22;52411;52.716;6.696;2022-07-04T04:09:10;11.60;99.90
65692;DHT22;52411;52.716;6.696;2022-07-04T04:35:01;12.60;99.90
65692;DHT22;52411;52.716;6.696;2022-07-04T04:47:48;13.00;99.90
65692;DHT22;52411;52.716;6.696;2022-07-04T04:58:00;13.40;99.90
65692;DHT22;52411;52.716;6.696;2022-07-04T05:00:26;13.60;99.90
65692;DHT22;52411;52.716;6.696;2022-07-04T05:02:52;13.70;99.90
65692;DHT22;52411;52.716;6.696;2022-07-04T05:05:18;13.70;99.90
65692;DHT22;52411;52.716;6.696;2022-07-04T05:07:44;13.70;99.90
65692;DHT22;52411;52.716;6.696;2022-07-04T05:46:35;14.70;99.90
65692;DHT22;52411;52.716;6.696;2022-07-04T05:51:36;14.90;99.90
65692;DHT22;52411;52.716;6.696;2022-07-04T05:54:01;15.00;99.90
65692;DHT22;52411;52.716;6.696;2022-07-04T05:56:27;15.10;99.90
65692;DHT22;52411;52.716;6.696;2022-07-04T06:09:14;15.50;99.90
65692;DHT22;52411;52.716;6.696;2022-07-04T06:11:40;15.50;99.90
65692;DHT22;52411;52.716;6.696;2022-07-04T06:14:05;15.60;99.90
65692;DHT22;52411;52.716;6.696;2022-07-04T06:16:31;15.60;99.90
65692;DHT22;52411;52.716;6.696;2022-07-04T06:18:57;15.70;99.90
65692;DHT22;52411;52.716;6.696;2022-07-04T06:31:36;16.00;99.90
65692;DHT22;52411;52.716;6.696;2022-07-04T06:34:02;16.10;99.90
65692;DHT22;52411;52.716;6.696;2022-07-04T06:36:46;16.30;99.90
65692;DHT22;52411;52.716;6.696;2022-07-04T06:39:12;16.30;99.90
65692;DHT22;52411;52.716;6.696;2022-07-04T06:41:38;16.40;99.90
65692;DHT22;52411;52.716;6.696;2022-07-04T06:44:04;16.40;99.90
65692;DHT22;52411;52.716;6.696;2022-07-04T06:46:30;16.60;99.90
65692;DHT22;52411;52.716;6.696;2022-07-04T06:48:56;16.70;99.90
65692;DHT22;52411;52.716;6.696;2022-07-04T06:51:22;16.70;99.90
65692;DHT22;52411;52.716;6.696;2022-07-04T06:53:48;16.60;99.90
65692;DHT22;52411;52.716;6.696;2022-07-04T06:56:14;16.50;99.90
65692;DHT22;52411;52.716;6.696;2022-07-04T06:58:40;16.60;99.90
65692;DHT22;52411;52.716;6.696;2022-07-04T07:01:05;16.70;99.90
65692;DHT22;52411;52.716;6.696;2022-07-04T07:03:31;16.80;99.90
65692;DHT22;52411;52.716;6.696;2022-07-04T07:05:56;16.80;99.90
65692;DHT22;52411;52.716;6.696;2022-07-04T07:08:22;16.80;99.90
65692;DHT22;52411;52.716;6.696;2022-07-04T07:10:48;16.90;99.90
65692;DHT22;52411;52.716;6.696;2022-07-04T07:13:14;17.00;99.90
65692;DHT22;52411;52.716;6.696;2022-07-04T07:15:40;17.20;99.90
65692;DHT22;52411;52.716;6.696;2022-07-04T07:18:06;17.30;99.90
65692;DHT22;52411;52.716;6.696;2022-07-04T07:20:32;17.50;99.90
65692;DHT22;52411;52.716;6.696;2022-07-04T07:22:57;17.60;99.90
65692;DHT22;52411;52.716;6.696;2022-07-04T07:25:23;17.60;99.90
65692;DHT22;52411;52.716;6.696;2022-07-04T07:27:49;17.70;99.90
65692;DHT22;52411;52.716;6.696;2022-07-04T07:30:15;17.70;99.90
65692;DHT22;52411;52.716;6.696;2022-07-04T07:32:40;17.70;99.90
65692;DHT22;52411;52.716;6.696;2022-07-04T07:35:06;17.80;99.90
65692;DHT22;52411;52.716;6.696;2022-07-04T07:37:32;18.00;99.90
65692;DHT22;52411;52.716;6.696;2022-07-04T07:39:57;18.10;99.90
65692;DHT22;52411;52.716;6.696;2022-07-04T07:42:24;17.90;99.90
65692;DHT22;52411;52.716;6.696;2022-07-04T07:44:50;17.70;99.90
65692;DHT22;52411;52.716;6.696;2022-07-04T07:47:15;17.80;99.90
65692;DHT22;52411;52.716;6.696;2022-07-04T07:49:42;18.00;99.90
65692;DHT22;52411;52.716;6.696;2022-07-04T07:52:08;18.20;99.90
65692;DHT22;52411;52.716;6.696;2022-07-04T07:54:34;18.20;99.90
65692;DHT22;52411;52.716;6.696;2022-07-04T07:57:00;18.20;99.90
65692;DHT22;52411;52.716;6.696;2022-07-04T07:59:25;18.30;99.90
65692;DHT22;52411;52.716;6.696;2022-07-04T08:01:51;18.30;99.90
65692;DHT22;52411;52.716;6.696;2022-07-04T08:04:17;18.50;99.90
65692;DHT22;52411;52.716;6.696;2022-07-04T08:07:06;18.60;99.90
65692;DHT22;52411;52.716;6.696;2022-07-04T08:09:32;18.50;99.90
65692;DHT22;52411;52.716;6.696;2022-07-04T08:11:59;18.60;99.90
65692;DHT22;52411;52.716;6.696;2022-07-04T08:14:24;18.70;99.90
65692;DHT22;52411;52.716;6.696;2022-07-04T08:16:50;18.80;99.90
65692;DHT22;52411;52.716;6.696;2022-07-04T08:19:16;18.70;99.90
65692;DHT22;52411;52.716;6.696;2022-07-04T08:21:42;18.60;99.90
65692;DHT22;52411;52.716;6.696;2022-07-04T08:24:07;18.50;99.90
65692;DHT22;52411;52.716;6.696;2022-07-04T08:26:33;18.40;99.90
65692;DHT22;52411;52.716;6.696;2022-07-04T08:28:59;18.50;99.90
65692;DHT22;52411;52.716;6.696;2022-07-04T08:31:26;18.60;99.90
65692;DHT22;52411;52.716;6.696;2022-07-04T08:33:52;18.70;99.90
65692;DHT22;52411;52.716;6.696;2022-07-04T08:36:18;18.60;99.90
65692;DHT22;52411;52.716;6.696;2022-07-04T08:38:44;18.60;99.90
65692;DHT22;52411;52.716;6.696;2022-07-04T08:41:10;18.50;99.90
65692;DHT22;52411;52.716;6.696;2022-07-04T08:43:38;18.40;99.90
65692;DHT22;52411;52.716;6.696;2022-07-04T08:46:05;18.40;99.90
65692;DHT22;52411;52.716;6.696;2022-07-04T08:48:32;18.60;99.90
65692;DHT22;52411;52.716;6.696;2022-07-04T08:51:09;18.60;99.90
65692;DHT22;52411;52.716;6.696;2022-07-04T08:53:38;18.70;99.90
65692;DHT22;52411;52.716;6.696;2022-07-04T08:56:06;18.90;99.90
65692;DHT22;52411;52.716;6.696;2022-07-04T08:58:55;19.10;99.90
65692;DHT22;52411;52.716;6.696;2022-07-04T09:01:20;19.40;99.90
65692;DHT22;52411;52.716;6.696;2022-07-04T09:03:46;19.60;99.90
65692;DHT22;52411;52.716;6.696;2022-07-04T09:06:12;20.00;99.90
65692;DHT22;52411;52.716;6.696;2022-07-04T09:08:39;20.20;99.90
65692;DHT22;52411;52.716;6.696;2022-07-04T09:11:05;20.40;99.90
65692;DHT22;52411;52.716;6.696;2022-07-04T09:13:31;20.60;99.90
65692;DHT22;52411;52.716;6.696;2022-07-04T09:15:57;20.70;99.90
65692;DHT22;52411;52.716;6.696;2022-07-04T09:20:57;20.60;99.90
65692;DHT22;52411;52.716;6.696;2022-07-04T09:23:26;20.60;99.90
65692;DHT22;52411;52.716;6.696;2022-07-04T09:28:44;20.40;99.90
65692;DHT22;52411;52.716;6.696;2022-07-04T09:31:20;20.30;99.90
65692;DHT22;52411;52.716;6.696;2022-07-04T09:34:07;20.30;99.90
65692;DHT22;52411;52.716;6.696;2022-07-04T09:36:40;20.60;99.90
65692;DHT22;52411;52.716;6.696;2022-07-04T09:41:55;20.90;99.90
65692;DHT22;52411;52.716;6.696;2022-07-04T09:44:22;20.80;99.90
65692;DHT22;52411;52.716;6.696;2022-07-04T09:46:48;20.70;99.90
65692;DHT22;52411;52.716;6.696;2022-07-04T09:49:14;20.90;99.90
65692;DHT22;52411;52.716;6.696;2022-07-04T09:51:45;21.10;99.90
65692;DHT22;52411;52.716;6.696;2022-07-04T09:54:15;21.30;99.90
65692;DHT22;52411;52.716;6.696;2022-07-04T09:56:42;21.60;99.90
65692;DHT22;52411;52.716;6.696;2022-07-04T09:59:08;21.50;99.90
65692;DHT22;52411;52.716;6.696;2022-07-04T10:01:34;21.40;99.90
65692;DHT22;52411;52.716;6.696;2022-07-04T10:04:00;21.30;99.90
65692;DHT22;52411;52.716;6.696;2022-07-04T10:06:31;21.10;99.90
65692;DHT22;52411;52.716;6.696;2022-07-04T10:09:16;21.20;99.90
65692;DHT22;52411;52.716;6.696;2022-07-04T10:11:43;21.10;99.90
65692;DHT22;52411;52.716;6.696;2022-07-04T10:14:11;21.00;99.90
65692;DHT22;52411;52.716;6.696;2022-07-04T10:16:38;20.70;99.90
65692;DHT22;52411;52.716;6.696;2022-07-04T10:19:06;20.60;99.90
65692;DHT22;52411;52.716;6.696;2022-07-04T10:21:32;20.80;99.90
65692;DHT22;52411;52.716;6.696;2022-07-04T10:23:58;21.10;99.90
65692;DHT22;52411;52.716;6.696;2022-07-04T10:26:27;21.00;99.90
65692;DHT22;52411;52.716;6.696;2022-07-04T10:28:53;21.10;99.90
65692;DHT22;52411;52.716;6.696;2022-07-04T10:31:23;21.10;99.90
65692;DHT22;52411;52.716;6.696;2022-07-04T10:33:51;20.90;99.50
65692;DHT22;52411;52.716;6.696;2022-07-04T10:36:23;20.90;99.90
65692;DHT22;52411;52.716;6.696;2022-07-04T10:38:54;21.00;99.90
65692;DHT22;52411;52.716;6.696;2022-07-04T10:41:22;21.10;99.90
65692;DHT22;52411;52.716;6.696;2022-07-04T10:43:58;21.10;99.90
65692;DHT22;52411;52.716;6.696;2022-07-04T10:46:37;21.00;99.90
65692;DHT22;52411;52.716;6.696;2022-07-04T10:49:06;21.00;99.80
65692;DHT22;52411;52.716;6.696;2022-07-04T10:51:42;21.10;99.50
65692;DHT22;52411;52.716;6.696;2022-07-04T10:59:28;21.30;99.50
65692;DHT22;52411;52.716;6.696;2022-07-04T11:04:50;21.50;97.20
65692;DHT22;52411;52.716;6.696;2022-07-04T11:18:11;21.40;95.70
65692;DHT22;52411;52.716;6.696;2022-07-04T11:20:42;21.40;96.60
65692;DHT22;52411;52.716;6.696;2022-07-04T11:23:15;21.50;97.10
65692;DHT22;52411;52.716;6.696;2022-07-04T11:25:44;21.40;97.80
65692;DHT22;52411;52.716;6.696;2022-07-04T11:30:50;21.70;97.20
65692;DHT22;52411;52.716;6.696;2022-07-04T11:33:25;21.80;97.20
65692;DHT22;52411;52.716;6.696;2022-07-04T11:36:02;22.00;97.50
65692;DHT22;52411;52.716;6.696;2022-07-04T11:38:59;21.60;97.10
65692;DHT22;52411;52.716;6.696;2022-07-04T11:41:31;21.70;97.00
65692;DHT22;52411;52.716;6.696;2022-07-04T11:44:17;22.10;96.50
65692;DHT22;52411;52.716;6.696;2022-07-04T11:47:54;22.30;97.20
65692;DHT22;52411;52.716;6.696;2022-07-04T11:50:02;22.60;96.00
65692;DHT22;52411;52.716;6.696;2022-07-04T11:52:29;22.80;97.20
65692;DHT22;52411;52.716;6.696;2022-07-04T11:54:56;22.90;96.60
65692;DHT22;52411;52.716;6.696;2022-07-04T11:57:25;22.70;96.10
65692;DHT22;52411;52.716;6.696;2022-07-04T12:00:12;22.70;95.90
65692;DHT22;52411;52.716;6.696;2022-07-04T12:02:39;22.60;95.40
65692;DHT22;52411;52.716;6.696;2022-07-04T12:05:08;22.40;95.50
65692;DHT22;52411;52.716;6.696;2022-07-04T12:07:39;22.50;95.60
65692;DHT22;52411;52.716;6.696;2022-07-04T12:10:15;22.50;96.00
65692;DHT22;52411;52.716;6.696;2022-07-04T12:13:05;22.50;96.30
65692;DHT22;52411;52.716;6.696;2022-07-04T12:15:43;22.30;95.90
65692;DHT22;52411;52.716;6.696;2022-07-04T12:18:22;22.50;96.30
65692;DHT22;52411;52.716;6.696;2022-07-04T12:20:49;22.60;95.80
65692;DHT22;52411;52.716;6.696;2022-07-04T12:23:18;22.60;96.40
65692;DHT22;52411;52.716;6.696;2022-07-04T12:25:46;22.30;95.80
65692;DHT22;52411;52.716;6.696;2022-07-04T12:28:17;22.10;95.50
65692;DHT22;52411;52.716;6.696;2022-07-04T12:30:51;21.80;95.50
65692;DHT22;52411;52.716;6.696;2022-07-04T13:08:12;22.40;94.90
65692;DHT22;52411;52.716;6.696;2022-07-04T13:10:38;22.60;95.20
65692;DHT22;52411;52.716;6.696;2022-07-04T13:26:01;22.50;93.80
65692;DHT22;52411;52.716;6.696;2022-07-04T13:28:27;22.50;94.30
65692;DHT22;52411;52.716;6.696;2022-07-04T14:22:40;23.40;89.10
65692;DHT22;52411;52.716;6.696;2022-07-04T15:03:57;24.30;76.20
65692;DHT22;52411;52.716;6.696;2022-07-04T15:06:22;24.20;76.20
65692;DHT22;52411;52.716;6.696;2022-07-04T15:08:48;24.30;74.20
65692;DHT22;52411;52.716;6.696;2022-07-04T15:11:14;24.30;72.20
65692;DHT22;52411;52.716;6.696;2022-07-04T15:13:39;24.60;72.60
65692;DHT22;52411;52.716;6.696;2022-07-04T15:16:05;24.80;72.50
65692;DHT22;52411;52.716;6.696;2022-07-04T15:18:32;25.00;72.30
65692;DHT22;52411;52.716;6.696;2022-07-04T15:20:57;25.00;70.90
65692;DHT22;52411;52.716;6.696;2022-07-04T15:23:42;24.80;68.20
65692;DHT22;52411;52.716;6.696;2022-07-04T15:26:27;24.60;67.80
65692;DHT22;52411;52.716;6.696;2022-07-04T15:28:52;24.60;68.10
65692;DHT22;52411;52.716;6.696;2022-07-04T15:31:18;24.40;65.40
65692;DHT22;52411;52.716;6.696;2022-07-04T15:33:44;24.60;66.10
65692;DHT22;52411;52.716;6.696;2022-07-04T15:36:09;24.50;66.60
65692;DHT22;52411;52.716;6.696;2022-07-04T15:38:35;24.80;66.40
65692;DHT22;52411;52.716;6.696;2022-07-04T15:41:01;24.70;64.90
65692;DHT22;52411;52.716;6.696;2022-07-04T15:43:32;24.90;65.70
65692;DHT22;52411;52.716;6.696;2022-07-04T15:45:58;24.90;65.50
65692;DHT22;52411;52.716;6.696;2022-07-04T16:16:57;26.30;59.20
65692;DHT22;52411;52.716;6.696;2022-07-04T16:19:22;26.90;59.30
65692;DHT22;52411;52.716;6.696;2022-07-04T16:21:49;26.50;58.50
65692;DHT22;52411;52.716;6.696;2022-07-04T16:42:23;27.10;56.70
65692;DHT22;52411;52.716;6.696;2022-07-04T16:44:49;26.90;55.80
65692;DHT22;52411;52.716;6.696;2022-07-04T17:08:35;26.10;55.80
65692;DHT22;52411;52.716;6.696;2022-07-04T17:11:05;25.70;55.00
65692;DHT22;52411;52.716;6.696;2022-07-04T17:13:32;25.40;55.70
65692;DHT22;52411;52.716;6.696;2022-07-04T17:15:58;25.60;56.80
65692;DHT22;52411;52.716;6.696;2022-07-04T17:26:08;26.90;57.80
65692;DHT22;52411;52.716;6.696;2022-07-04T17:38:48;27.40;54.60
65692;DHT22;52411;52.716;6.696;2022-07-04T17:41:14;27.30;54.50
65692;DHT22;52411;52.716;6.696;2022-07-04T17:54:32;26.80;55.20
65692;DHT22;52411;52.716;6.696;2022-07-04T18:02:08;27.60;55.00
65692;DHT22;52411;52.716;6.696;2022-07-04T18:04:34;27.50;55.00
65692;DHT22;52411;52.716;6.696;2022-07-04T18:07:00;27.80;54.40
65692;DHT22;52411;52.716;6.696;2022-07-04T18:09:25;28.00;54.00
65692;DHT22;52411;52.716;6.696;2022-07-04T18:11:51;27.70;53.90
65692;DHT22;52411;52.716;6.696;2022-07-04T18:14:17;27.70;53.40
65692;DHT22;52411;52.716;6.696;2022-07-04T18:16:56;27.60;53.60
65692;DHT22;52411;52.716;6.696;2022-07-04T18:19:57;27.70;53.30
65692;DHT22;52411;52.716;6.696;2022-07-04T18:22:57;28.10;53.30
65692;DHT22;52411;52.716;6.696;2022-07-04T18:29:05;28.50;53.30
65692;DHT22;52411;52.716;6.696;2022-07-04T18:31:31;28.60;53.70
65692;DHT22;52411;52.716;6.696;2022-07-04T18:48:06;27.80;53.90
65692;DHT22;52411;52.716;6.696;2022-07-04T18:50:33;28.10;54.20
65692;DHT22;52411;52.716;6.696;2022-07-04T19:00:24;28.10;52.90
65692;DHT22;52411;52.716;6.696;2022-07-04T19:19:16;25.20;58.10
65692;DHT22;52411;52.716;6.696;2022-07-04T19:32:10;24.80;60.90
65692;DHT22;52411;52.716;6.696;2022-07-04T19:34:38;24.70;61.70
65692;DHT22;52411;52.716;6.696;2022-07-04T19:55:11;21.80;78.80
65692;DHT22;52411;52.716;6.696;2022-07-04T19:57:39;21.60;81.80
65692;DHT22;52411;52.716;6.696;2022-07-04T20:22:28;19.70;94.60
65692;DHT22;52411;52.716;6.696;2022-07-04T20:30:06;19.30;94.40
65692;DHT22;52411;52.716;6.696;2022-07-04T20:32:32;19.40;94.70
65692;DHT22;52411;52.716;6.696;2022-07-04T20:40:33;19.00;95.00
65692;DHT22;52411;52.716;6.696;2022-07-04T20:42:59;18.90;95.30
65692;DHT22;52411;52.716;6.696;2022-07-04T20:45:24;18.90;95.50
65692;DHT22;52411;52.716;6.696;2022-07-04T20:47:50;18.70;96.00
65692;DHT22;52411;52.716;6.696;2022-07-04T20:50:16;18.70;96.00
65692;DHT22;52411;52.716;6.696;2022-07-04T20:52:41;18.60;96.20
65692;DHT22;52411;52.716;6.696;2022-07-04T20:55:07;18.50;96.40
65692;DHT22;52411;52.716;6.696;2022-07-04T20:57:33;18.50;96.60
65692;DHT22;52411;52.716;6.696;2022-07-04T20:59:59;18.30;96.90
65692;DHT22;52411;52.716;6.696;2022-07-04T21:02:24;18.30;97.10
65692;DHT22;52411;52.716;6.696;2022-07-04T21:04:50;18.30;97.10
65692;DHT22;52411;52.716;6.696;2022-07-04T21:07:16;18.30;97.10
65692;DHT22;52411;52.716;6.696;2022-07-04T21:09:41;18.30;97.20
65692;DHT22;52411;52.716;6.696;2022-07-04T21:12:07;18.30;97.30
65692;DHT22;52411;52.716;6.696;2022-07-04T21:14:33;18.20;97.50
65692;DHT22;52411;52.716;6.696;2022-07-04T21:16:59;18.10;97.70
65692;DHT22;52411;52.716;6.696;2022-07-04T21:19:25;18.00;97.60
65692;DHT22;52411;52.716;6.696;2022-07-04T21:21:51;18.00;97.90
65692;DHT22;52411;52.716;6.696;2022-07-04T21:24:17;17.90;98.00
65692;DHT22;52411;52.716;6.696;2022-07-04T21:26:42;17.90;98.00
65692;DHT22;52411;52.716;6.696;2022-07-04T21:29:08;17.80;98.30
65692;DHT22;52411;52.716;6.696;2022-07-04T21:31:34;17.70;98.50
65692;DHT22;52411;52.716;6.696;2022-07-04T21:34:00;17.60;98.60
65692;DHT22;52411;52.716;6.696;2022-07-04T21:36:26;17.60;98.90
65692;DHT22;52411;52.716;6.696;2022-07-04T21:38:51;17.60;99.00
65692;DHT22;52411;52.716;6.696;2022-07-04T21:41:17;17.50;99.10
65692;DHT22;52411;52.716;6.696;2022-07-04T21:43:43;17.50;99.00
65692;DHT22;52411;52.716;6.696;2022-07-04T21:46:09;17.40;99.60
65692;DHT22;52411;52.716;6.696;2022-07-04T21:48:35;17.10;99.90
65692;DHT22;52411;52.716;6.696;2022-07-04T21:51:01;16.80;99.90
65692;DHT22;52411;52.716;6.696;2022-07-04T21:53:26;16.80;99.90
65692;DHT22;52411;52.716;6.696;2022-07-04T21:55:52;16.60;99.90
65692;DHT22;52411;52.716;6.696;2022-07-04T21:58:18;16.50;99.90
65692;DHT22;52411;52.716;6.696;2022-07-04T22:00:43;16.40;99.90
65692;DHT22;52411;52.716;6.696;2022-07-04T22:03:09;16.30;99.90
65692;DHT22;52411;52.716;6.696;2022-07-04T22:05:35;16.20;99.90
65692;DHT22;52411;52.716;6.696;2022-07-04T22:08:01;16.10;99.90
65692;DHT22;52411;52.716;6.696;2022-07-04T22:10:28;16.00;99.90
65692;DHT22;52411;52.716;6.696;2022-07-04T22:12:53;16.10;99.90
65692;DHT22;52411;52.716;6.696;2022-07-04T22:15:19;16.00;99.90
65692;DHT22;52411;52.716;6.696;2022-07-04T22:17:45;15.90;99.90
65692;DHT22;52411;52.716;6.696;2022-07-04T22:20:10;15.80;99.90
65692;DHT22;52411;52.716;6.696;2022-07-04T22:22:36;15.70;99.90
65692;DHT22;52411;52.716;6.696;2022-07-04T22:25:03;15.70;99.90
65692;DHT22;52411;52.716;6.696;2022-07-04T22:27:29;15.60;99.90
65692;DHT22;52411;52.716;6.696;2022-07-04T22:29:54;15.50;99.90
65692;DHT22;52411;52.716;6.696;2022-07-04T22:32:20;15.40;99.90
65692;DHT22;52411;52.716;6.696;2022-07-04T22:34:48;15.30;99.90
65692;DHT22;52411;52.716;6.696;2022-07-04T22:37:14;15.30;99.90
65692;DHT22;52411;52.716;6.696;2022-07-04T22:39:40;15.40;99.90
65692;DHT22;52411;52.716;6.696;2022-07-04T22:42:05;15.40;99.90
65692;DHT22;52411;52.716;6.696;2022-07-04T22:44:31;15.30;99.90
65692;DHT22;52411;52.716;6.696;2022-07-04T22:46:57;15.20;99.90
65692;DHT22;52411;52.716;6.696;2022-07-04T22:49:23;15.10;99.90
65692;DHT22;52411;52.716;6.696;2022-07-04T22:51:48;15.10;99.90
65692;DHT22;52411;52.716;6.696;2022-07-04T22:54:14;15.10;99.90
65692;DHT22;52411;52.716;6.696;2022-07-04T22:56:58;15.00;99.90
65692;DHT22;52411;52.716;6.696;2022-07-04T22:59:24;15.10;99.90
65692;DHT22;52411;52.716;6.696;2022-07-04T23:01:49;15.10;99.90
65692;DHT22;52411;52.716;6.696;2022-07-04T23:04:15;15.10;99.90
65692;DHT22;52411;52.716;6.696;2022-07-04T23:06:41;15.10;99.90
65692;DHT22;52411;52.716;6.696;2022-07-04T23:09:06;15.00;99.90
65692;DHT22;52411;52.716;6.696;2022-07-04T23:11:32;15.00;99.90
65692;DHT22;52411;52.716;6.696;2022-07-04T23:13:58;14.90;99.90
65692;DHT22;52411;52.716;6.696;2022-07-04T23:16:23;14.80;99.90
65692;DHT22;52411;52.716;6.696;2022-07-04T23:18:49;14.40;99.90
65692;DHT22;52411;52.716;6.696;2022-07-04T23:21:15;14.30;99.90
65692;DHT22;52411;52.716;6.696;2022-07-04T23:23:40;14.20;99.90
65692;DHT22;52411;52.716;6.696;2022-07-04T23:26:06;14.20;99.90
65692;DHT22;52411;52.716;6.696;2022-07-04T23:28:32;14.30;99.90
65692;DHT22;52411;52.716;6.696;2022-07-04T23:30:58;14.30;99.90
65692;DHT22;52411;52.716;6.696;2022-07-04T23:33:23;14.30;99.90
65692;DHT22;52411;52.716;6.696;2022-07-04T23:35:49;14.40;99.90
65692;DHT22;52411;52.716;6.696;2022-07-04T23:38:14;14.40;99.90
65692;DHT22;52411;52.716;6.696;2022-07-04T23:40:40;14.20;99.90
65692;DHT22;52411;52.716;6.696;2022-07-04T23:43:06;14.20;99.90
65692;DHT22;52411;52.716;6.696;2022-07-04T23:45:32;14.20;99.90
65692;DHT22;52411;52.716;6.696;2022-07-04T23:47:59;14.20;99.90
65692;DHT22;52411;52.716;6.696;2022-07-04T23:50:24;14.20;99.90
65692;DHT22;52411;52.716;6.696;2022-07-04T23:52:50;14.20;99.90
65692;DHT22;52411;52.716;6.696;2022-07-04T23:55:15;14.20;99.90
65692;DHT22;52411;52.716;6.696;2022-07-04T23:57:41;14.20;99.90
